• Join FlightAware (Why Join?)
  • Login
  • US Flag 
07:57AM EDT


 

Airport Tracker/Info


-or-


 

Live Flight TrackerFlight Track Log ✈ GJS3710 ✈ 03-Jun-2013 ✈ KMSY - KORD

Flight Track Log - Related Links

Times and Time Zones

All times are in EDT time to prevent confusion due to time zone crossing. See the GJS3710 flight status page for this flight to view local times or setup timezone preferences in your user account.

Time Position Orientation Groundspeed Altitude Reporting Facility
EDT Latitude Longitude Course Direction KTS MPH feet Rate Location/Type
03:34PM 30.0114 -90.2428 North 150 173 700  Level Houston Center
03:35PM 30.0464 -90.2319 15° North 175 201 2,100 1,860 Climbing Houston Center
03:36PM 30.0900 -90.2281 North 218 251 3,600 1,920 Climbing Houston Center
03:36PM 30.1011 -90.2417 313° West 245 282 4,100 1,920 Climbing Houston Center
03:37PM 30.1064 -90.3039 276° West 248 285 5,600 2,220 Climbing Houston Center
03:38PM 30.3696 -90.4515 337° Northwest  Level FlightAware Approximate
03:38PM 30.1111 -90.3906 274° West 262 302 8,100  Level Houston Center
03:39PM 30.4705 -90.4500 North  Level FlightAware Approximate
03:39PM 30.1844 -90.4150 344° North 284 327 10,500  Level Houston Center
03:40PM 30.5768 -90.4452 North  Level FlightAware Approximate
03:40PM 30.2722 -90.4161 359° North 309 356 12,000  Level Houston Center
03:41PM 30.3600 -90.4464 343° North 343 395 13,800 1,620 Climbing Houston Center
03:42PM 30.4397 -90.5133 324° Northwest 355 409 15,400 1,740 Climbing Houston Center
03:43PM 30.5567 -90.5500 345° North 367 422 17,500 1,740 Climbing Houston Center
03:44PM 30.6597 -90.5575 356° North 369 425 19,100 1,260 Climbing Houston Center
03:45PM 30.7661 -90.5494 North 378 435 20,200 1,020 Climbing Houston Center
03:46PM 30.8775 -90.5364 North 392 451 21,300 1,020 Climbing Houston Center
03:47PM 30.9911 -90.5261 North 402 463 22,400 1,020 Climbing Houston Center
03:48PM 31.1069 -90.5147 North 412 474 23,500 1,140 Climbing Houston Center
03:49PM 31.2489 -90.5014 North 421 484 24,800 1,140 Climbing Houston Center
03:50PM 31.3683 -90.4892 North 427 491 25,900 960 Climbing Houston Center
03:51PM 31.4900 -90.4778 North 433 498 26,900 780 Climbing Houston Center
03:52PM 31.6150 -90.4656 North 443 510 27,600 720 Climbing Houston Center
03:53PM 31.7417 -90.4525 North 453 521 28,500 960 Climbing Houston Center
03:54PM 31.8686 -90.4403 North 456 525 29,600 1,140 Climbing Houston Center
03:55PM 32.0200 -90.4247 North 455 524 30,900 840 Climbing Houston Center
03:57PM 32.1456 -90.4111 North 453 521 31,400 480 Climbing Houston Center
03:57PM 32.1917 -90.4089 North 456 525 31,600 480 Climbing Memphis Center
03:58PM 32.3211 -90.3942 North 462 532 32,100 480 Climbing Memphis Center
03:59PM 32.4528 -90.3794 North 464 534 32,600 540 Climbing Memphis Center
04:00PM 32.5842 -90.3672 North 469 540 33,200 660 Climbing Memphis Center
04:01PM 32.7136 -90.3572 North 463 533 34,000 840 Climbing Memphis Center
04:02PM 32.8411 -90.3425 North 463 533 34,900 900 Climbing Memphis Center
04:03PM 32.9642 -90.3325 North 456 525 35,800 900 Climbing Memphis Center
04:04PM 33.0853 -90.3200 North 450 518 36,700 600 Climbing Memphis Center
04:05PM 33.2064 -90.3075 North 439 505 37,000 120 Climbing Memphis Center
04:06PM 33.3253 -90.2950 North 433 498 37,000  Level Memphis Center
04:07PM 33.4400 -90.2825 North 420 483 37,000  Level Memphis Center
04:08PM 33.5569 -90.2625 North 420 483 37,000  Level Memphis Center
04:09PM 33.6739 -90.2397 North 420 483 37,000  Level Memphis Center
04:10PM 33.7864 -90.2197 North 420 483 37,000  Level Memphis Center
04:11PM 33.9014 -90.1969 North 413 475 37,000  Level Memphis Center
04:12PM 34.0139 -90.1767 North 408 470 37,000  Level Memphis Center
04:13PM 34.1308 -90.1539 North 408 470 37,000  Level Memphis Center
04:14PM 34.2414 -90.1336 North 408 470 37,000  Level Memphis Center
04:15PM 34.3581 -90.1131 North 408 470 37,000  Level Memphis Center
04:16PM 34.4689 -90.1253 355° North 403 464 37,000  Level Memphis Center
04:17PM 34.5794 -90.1528 348° North 405 466 37,000  Level Memphis Center
04:18PM 34.6858 -90.1678 353° North 410 472 37,000  Level Memphis Center
04:19PM 34.8006 -90.1775 356° North 420 483 37,000  Level Memphis Center
04:20PM 34.9217 -90.1850 357° North 425 489 37,000  Level Memphis Center
04:21PM 35.0386 -90.1897 358° North 420 483 37,000  Level Memphis Center
04:22PM 35.1678 -90.2022 355° North 420 483 37,000  Level Memphis Center
04:23PM 35.2847 -90.2069 358° North 420 483 37,000  Level Memphis Center
04:24PM 35.4014 -90.2169 356° North 420 483 37,000  Level Memphis Center
04:25PM 35.5183 -90.2244 357° North 420 483 37,000  Level Memphis Center
04:26PM 35.6331 -90.2319 357° North 420 483 37,000  Level Memphis Center
04:27PM 35.7289 -90.2419 355° North 412 474 37,000  Level Memphis Center
04:28PM 35.8478 -90.2519 356° North 407 468 37,000  Level Memphis Center
04:29PM 35.9647 -90.2594 357° North 407 468 37,000  Level Memphis Center
04:30PM 36.0836 -90.2697 356° North 412 474 37,000  Level Memphis Center
04:31PM 36.2003 -90.2797 356° North 422 486 37,000  Level Memphis Center
04:32PM 36.3211 -90.2875 357° North 422 486 37,000  Level Memphis Center
04:33PM 36.4358 -90.3158 349° North 422 486 37,000  Level Memphis Center
04:34PM 36.5464 -90.3492 346° North 422 486 37,000  Level Memphis Center
04:35PM 36.7358 -90.3947 349° North 420 483 37,000  Level Kansas City Center
04:36PM 36.8492 -90.4289 346° North 418 481 37,000  Level Kansas City Center
04:37PM 36.9639 -90.4614 347° North 419 482 37,000  Level Kansas City Center
04:38PM 37.0789 -90.4947 347° North 421 484 37,000  Level Kansas City Center
04:40PM 37.1947 -90.5272 347° North 423 487 37,000  Level Kansas City Center
04:41PM 37.3103 -90.5608 347° North 423 487 37,000  Level Kansas City Center
04:42PM 37.4275 -90.5947 347° North 425 489 37,000  Level Kansas City Center
04:43PM 37.5431 -90.6283 347° North 426 490 37,000  Level Kansas City Center
04:44PM 37.6831 -90.6681 347° North 428 493 37,000  Level Kansas City Center
04:45PM 37.8008 -90.7042 346° North 431 496 37,000  Level Kansas City Center
04:46PM 37.9181 -90.7383 347° North 433 498 37,000  Level Kansas City Center
04:47PM 38.0367 -90.7739 347° North 434 499 37,000  Level Kansas City Center
04:48PM 38.1553 -90.8106 346° North 436 502 37,000  Level Kansas City Center
04:49PM 38.2750 -90.8450 347° North 438 504 37,000  Level Kansas City Center
04:50PM 38.4189 -90.8894 346° North 441 507 37,000  Level Kansas City Center
04:51PM 38.5400 -90.9256 347° North 442 509 37,000  Level Kansas City Center
04:52PM 38.6628 -90.9544 350° North 445 512 37,000  Level Kansas City Center
04:53PM 38.7861 -90.9250 11° North 449 517 37,000 -240 Level Kansas City Center
04:55PM 39.0222 -90.7961 23° Northeast 458 527 36,300 -600 Descending Kansas City Center
04:56PM 39.1458 -90.7292 23° Northeast 471 542 35,300 -1,020 Descending Kansas City Center
04:57PM 39.2703 -90.6611 23° Northeast 481 554 34,200 -1,140 Descending Kansas City Center
04:58PM 39.4119 -90.5814 23° Northeast 467 537 33,000 -600 Descending Kansas City Center
04:59PM 39.5289 -90.5175 23° Northeast 458 527 33,000  Level Kansas City Center
05:00PM 39.6472 -90.4519 23° Northeast 460 529 33,000  Level Kansas City Center
05:01PM 39.7717 -90.3817 23° Northeast 463 533 33,000  Level Kansas City Center
05:02PM 39.8900 -90.3156 23° Northeast 463 533 33,000  Level Kansas City Center
05:03PM 40.0078 -90.2492 23° Northeast 461 531 33,000  Level Kansas City Center
05:04PM 40.1258 -90.1825 23° Northeast 462 532 33,000  Level Kansas City Center
05:05PM 40.2433 -90.1167 23° Northeast 461 531 33,000  Level Kansas City Center
05:06PM 40.3850 -90.0356 24° Northeast 462 532 33,000 -60 Level Kansas City Center
05:07PM 40.5025 -89.9686 23° Northeast 462 532 32,900 -960 Descending Kansas City Center
05:08PM 40.6289 -89.8958 24° Northeast 460 529 31,100 -1,620 Descending Kansas City Center
05:09PM 40.7322 -89.8361 24° Northeast 464 534 29,600 -1,740 Descending Kansas City Center
05:10PM 40.7642 -89.7903 24° Northeast 468 539 29,000 -1,560 Descending Chicago Center
05:11PM 40.8343 -89.7763 24° Northeast  Level FlightAware Approximate
05:11PM 40.8531 -89.6706 46° Northeast 455 524 27,700  Level Chicago Center
05:12PM 40.9339 -89.5528 48° Northeast 437 503 26,300 -1,620 Descending Chicago Center
05:13PM 41.0161 -89.4364 47° Northeast 437 503 24,400 -2,040 Descending Chicago Center
05:14PM 41.0975 -89.3183 48° Northeast 435 501 22,200 -2,160 Descending Chicago Center
05:15PM 41.1797 -89.1983 48° Northeast 437 503 19,900 -2,340 Descending Chicago Center
05:16PM 41.2711 -89.0631 48° Northeast 416 479 17,400 -2,280 Descending Chicago Center
05:17PM 41.3475 -88.9525 47° Northeast 411 473 15,200 -2,040 Descending Chicago Center
05:18PM 41.4178 -88.8469 48° Northeast 385 443 13,300 -1,800 Descending Chicago Center
05:19PM 41.4861 -88.7467 48° Northeast 365 420 11,500 -1,140 Descending Chicago Center
05:20PM 41.5397 -88.6378 57° Northeast 353 406 11,000 -480 Descending Chicago Center
05:21PM 41.5900 -88.5108 62° Northeast 319 367 10,600 -1,020 Descending Chicago Center
05:22PM 41.6350 -88.4219 56° Northeast 290 334 9,000 -1,500 Descending Chicago Center
05:23PM 41.6839 -88.3442 50° Northeast 272 313 7,500 -1,020 Descending Chicago Center
05:24PM 41.7503 -88.3336 North 237 273 7,000 -240 Descending Chicago Center
05:25PM 41.8036 -88.3261 North 197 227 7,000 -60 Level Chicago Center
05:26PM 41.8544 -88.3161 North 185 213 6,900 -780 Descending Chicago Center
05:27PM 41.9189 -88.3172 359° North 192 221 5,500 -960 Descending Chicago Center
05:28PM 41.9628 -88.2956 20° North 207 238 5,000 -300 Descending Chicago Center
05:29PM 41.9669 -88.2225 86° East 204 235 5,000 -540 Level Chicago Center
05:30PM 41.9689 -88.1528 88° East 196 226 4,000 -1,200 Descending Chicago Center
05:31PM 41.9667 -88.0833 92° East 185 213 2,900 -1,440 Descending Chicago TRACON